createdAt,value
2018-12-20T00:01:20.198Z,100942.32
2018-12-20T00:03:47.866Z,100942.61
2018-12-20T00:06:15.407Z,100939.22
2018-12-20T00:08:42.863Z,100940.56
2018-12-20T00:11:10.334Z,100936.81
2018-12-20T00:13:37.806Z,100944.94
2018-12-20T00:16:05.319Z,100943.33
2018-12-20T00:18:32.854Z,100937.67
2018-12-20T00:21:00.380Z,100948.23
2018-12-20T00:23:27.881Z,100948.71
2018-12-20T00:25:55.356Z,100952.83
2018-12-20T00:28:22.910Z,100949.07
2018-12-20T00:30:50.404Z,100945.13
2018-12-20T00:33:17.889Z,100942.56
2018-12-20T00:35:45.376Z,100939.11
2018-12-20T00:38:12.930Z,100940.34
2018-12-20T00:40:40.384Z,100941.30
2018-12-20T00:43:08.186Z,100941.51
2018-12-20T00:45:35.843Z,100947.83
2018-12-20T00:48:03.416Z,100943.72
2018-12-20T00:50:31.012Z,100937.70
2018-12-20T00:52:58.610Z,100933.17
2018-12-20T00:55:26.298Z,100943.80
2018-12-20T00:57:53.947Z,100933.45
2018-12-20T01:00:21.742Z,100940.52
2018-12-20T01:02:55.239Z,100937.94
2018-12-20T01:05:18.988Z,100935.41
2018-12-20T01:07:46.485Z,100941.19
2018-12-20T01:10:14.026Z,100932.88
2018-12-20T01:12:41.501Z,100934.41
2018-12-20T01:15:09.146Z,100931.63
2018-12-20T01:17:38.711Z,100930.89
2018-12-20T01:20:08.385Z,100936.28
2018-12-20T01:22:36.181Z,100929.02
2018-12-20T01:25:04.234Z,100935.58
2018-12-20T01:27:31.858Z,100934.72
2018-12-20T01:29:59.332Z,100937.93
2018-12-20T01:32:26.860Z,100933.38
2018-12-20T01:34:54.363Z,100933.62
2018-12-20T01:37:21.948Z,100941.52
2018-12-20T01:39:49.558Z,100933.19
2018-12-20T01:42:17.108Z,100931.88
2018-12-20T01:44:44.636Z,100936.84
2018-12-20T01:47:12.412Z,100927.03
2018-12-20T01:49:39.935Z,100927.69
2018-12-20T01:52:07.519Z,100929.53
2018-12-20T01:54:35.014Z,100927.48
2018-12-20T01:57:03.152Z,100930.97
2018-12-20T01:59:30.930Z,100931.30
2018-12-20T02:01:58.433Z,100931.50
2018-12-20T02:04:25.995Z,100933.79
2018-12-20T02:06:53.708Z,100933.38
2018-12-20T02:09:21.544Z,100938.84
2018-12-20T02:11:49.191Z,100940.84
2018-12-20T02:14:17.033Z,100936.64
2018-12-20T02:16:44.660Z,100939.59
2018-12-20T02:19:12.659Z,100938.70
2018-12-20T02:21:40.299Z,100939.26
2018-12-20T02:24:07.853Z,100934.25
2018-12-20T02:26:35.313Z,100936.05
2018-12-20T02:29:02.807Z,100933.47
2018-12-20T02:31:30.375Z,100930.08
2018-12-20T02:33:57.927Z,100929.67
2018-12-20T02:36:25.633Z,100924.06
2018-12-20T02:38:53.367Z,100924.01
2018-12-20T02:41:20.949Z,100920.31
2018-12-20T02:43:48.485Z,100910.30
2018-12-20T02:46:15.968Z,100914.08
2018-12-20T02:48:43.536Z,100915.19
2018-12-20T02:51:11.487Z,100913.38
2018-12-20T02:53:39.244Z,100909.02
2018-12-20T02:56:06.789Z,100909.64
2018-12-20T02:58:34.557Z,100904.02
2018-12-20T03:01:02.258Z,100903.47
2018-12-20T03:03:29.880Z,100893.12
2018-12-20T03:05:57.398Z,100891.37
2018-12-20T03:08:24.989Z,100894.84
2018-12-20T03:10:52.555Z,100892.18
2018-12-20T03:13:19.969Z,100887.71
2018-12-20T03:15:47.493Z,100887.48
2018-12-20T03:18:15.018Z,100889.39
2018-12-20T03:20:42.468Z,100884.70
2018-12-20T03:23:09.926Z,100887.19
2018-12-20T03:25:37.439Z,100888.20
2018-12-20T03:28:05.041Z,100885.82
2018-12-20T03:30:32.792Z,100891.83
2018-12-20T03:33:00.466Z,100879.00
2018-12-20T03:35:28.179Z,100875.50
2018-12-20T03:37:56.017Z,100877.83
2018-12-20T03:40:23.533Z,100885.28
2018-12-20T03:42:51.714Z,100884.59
2018-12-20T03:45:19.220Z,100876.35
2018-12-20T03:47:46.751Z,100880.13
2018-12-20T03:50:14.305Z,100880.25
2018-12-20T03:52:41.969Z,100882.24
2018-12-20T03:55:09.529Z,100886.70
2018-12-20T03:57:36.974Z,100877.42
2018-12-20T04:00:06.175Z,100883.00
2018-12-20T04:02:33.658Z,100874.08
2018-12-20T04:05:01.144Z,100881.50
2018-12-20T04:07:28.750Z,100884.45
2018-12-20T04:09:56.358Z,100876.48
2018-12-20T04:12:23.957Z,100873.12
2018-12-20T04:14:51.396Z,100879.34
2018-12-20T04:17:18.929Z,100881.89
2018-12-20T04:19:46.433Z,100886.91
2018-12-20T04:22:13.931Z,100889.98
2018-12-20T04:24:41.374Z,100883.70
2018-12-20T04:27:09.035Z,100884.86
2018-12-20T04:29:36.720Z,100880.19
2018-12-20T04:32:04.189Z,100882.09
2018-12-20T04:34:31.724Z,100882.26
2018-12-20T04:36:59.240Z,100894.07
2018-12-20T04:39:26.721Z,100895.00
2018-12-20T04:41:54.478Z,100887.53
2018-12-20T04:44:22.530Z,100886.20
2018-12-20T04:46:50.385Z,100883.20
2018-12-20T04:49:17.929Z,100885.30
2018-12-20T04:51:45.502Z,100889.53
2018-12-20T04:54:13.053Z,100893.28
2018-12-20T04:56:40.585Z,100902.72
2018-12-20T04:59:08.373Z,100905.95
2018-12-20T05:01:36.094Z,100905.02
2018-12-20T05:04:04.211Z,100902.59
2018-12-20T05:06:31.722Z,100904.05
2018-12-20T05:08:59.482Z,100906.09
2018-12-20T05:11:26.977Z,100901.32
2018-12-20T05:13:54.448Z,100898.39
2018-12-20T05:16:21.961Z,100901.98
2018-12-20T05:18:49.539Z,100910.77
2018-12-20T05:21:17.140Z,100908.22
2018-12-20T05:23:44.835Z,100914.38
2018-12-20T05:26:12.405Z,100904.55
2018-12-20T05:28:39.867Z,100917.50
2018-12-20T05:31:08.778Z,100916.64
2018-12-20T05:33:36.496Z,100906.40
2018-12-20T05:36:03.992Z,100915.37
2018-12-20T05:38:31.598Z,100917.99
2018-12-20T05:40:59.258Z,100920.42
2018-12-20T05:43:26.953Z,100920.48
2018-12-20T05:45:54.585Z,100924.23
2018-12-20T05:48:22.269Z,100922.66
2018-12-20T05:50:49.941Z,100915.19
2018-12-20T05:53:17.623Z,100924.68
2018-12-20T05:55:45.248Z,100919.19
2018-12-20T05:58:12.883Z,100926.22
2018-12-20T06:00:40.687Z,100926.00
2018-12-20T06:03:08.441Z,100933.58
2018-12-20T06:05:36.053Z,100938.53
2018-12-20T06:08:03.596Z,100941.39
2018-12-20T06:10:31.083Z,100935.37
2018-12-20T06:12:58.707Z,100942.56
2018-12-20T06:15:26.277Z,100947.26
2018-12-20T06:17:53.724Z,100943.75
2018-12-20T06:20:21.189Z,100940.56
2018-12-20T06:22:48.793Z,100952.88
2018-12-20T06:25:16.287Z,100951.45
2018-12-20T06:27:43.723Z,100950.53
2018-12-20T06:30:11.308Z,100954.47
2018-12-20T06:32:39.508Z,100951.20
2018-12-20T06:35:06.978Z,100953.19
2018-12-20T06:37:34.446Z,100953.23
2018-12-20T06:40:01.882Z,100954.08
2018-12-20T06:42:29.344Z,100955.84
2018-12-20T06:44:56.851Z,100953.76
2018-12-20T06:47:24.317Z,100955.27
2018-12-20T06:49:51.793Z,100952.73
2018-12-20T06:52:19.284Z,100952.98
2018-12-20T06:54:46.754Z,100954.10
2018-12-20T06:57:14.233Z,100957.57
2018-12-20T06:59:41.687Z,100952.51
2018-12-20T07:02:09.157Z,100951.89
2018-12-20T07:04:36.598Z,100951.71
2018-12-20T07:07:04.199Z,100951.28
2018-12-20T07:09:31.657Z,100950.44
2018-12-20T07:11:59.117Z,100951.19
2018-12-20T07:14:26.574Z,100959.25
2018-12-20T07:16:54.049Z,100962.20
2018-12-20T07:19:21.535Z,100957.86
2018-12-20T07:21:49.038Z,100962.54
2018-12-20T07:24:16.472Z,100965.73
2018-12-20T07:26:43.963Z,100956.86
2018-12-20T07:29:11.439Z,100960.25
2018-12-20T07:31:38.888Z,100958.47
2018-12-20T07:34:06.523Z,100956.94
2018-12-20T07:36:33.993Z,100961.27
2018-12-20T07:39:01.487Z,100966.60
2018-12-20T07:41:29.007Z,100964.89
2018-12-20T07:43:56.528Z,100964.45
2018-12-20T07:46:24.075Z,100965.47
2018-12-20T07:48:51.574Z,100971.41
2018-12-20T07:51:19.009Z,100980.94
2018-12-20T07:53:46.492Z,100972.84
2018-12-20T07:56:13.924Z,100968.62
2018-12-20T07:58:41.408Z,100971.50
2018-12-20T08:01:08.894Z,100975.38
2018-12-20T08:03:36.334Z,100977.14
2018-12-20T08:06:03.926Z,100979.45
2018-12-20T08:08:31.409Z,100982.38
2018-12-20T08:10:58.853Z,100983.19
2018-12-20T08:13:26.327Z,100978.76
2018-12-20T08:15:53.782Z,100976.91
2018-12-20T08:18:21.299Z,100985.55
2018-12-20T08:20:48.767Z,100981.55
2018-12-20T08:23:16.222Z,100985.98
2018-12-20T08:25:43.670Z,100988.63
2018-12-20T08:28:11.180Z,100987.41
2018-12-20T08:30:38.612Z,100991.41
2018-12-20T08:33:06.135Z,101001.82
2018-12-20T08:35:33.563Z,101001.02
2018-12-20T08:38:01.387Z,101003.77
2018-12-20T08:40:28.857Z,101006.48
2018-12-20T08:42:56.344Z,101009.31
2018-12-20T08:45:23.919Z,101011.59
2018-12-20T08:47:51.383Z,101011.76
2018-12-20T08:50:18.843Z,101015.46
2018-12-20T08:52:46.308Z,101010.17
2018-12-20T08:55:13.763Z,101014.62
2018-12-20T08:57:41.267Z,101015.17
2018-12-20T09:00:09.387Z,101013.09
2018-12-20T09:02:37.039Z,101017.03
2018-12-20T09:05:05.214Z,101018.52
2018-12-20T09:07:32.694Z,101025.78
2018-12-20T09:10:00.140Z,101022.95
2018-12-20T09:12:27.639Z,101030.52
2018-12-20T09:14:55.118Z,101028.27
2018-12-20T09:17:22.573Z,101027.71
2018-12-20T09:19:50.024Z,101027.89
2018-12-20T09:22:17.512Z,101025.53
2018-12-20T09:24:45.076Z,101027.31
2018-12-20T09:27:12.584Z,101018.01
2018-12-20T09:29:40.057Z,101025.94
2018-12-20T09:32:07.503Z,101030.95
2018-12-20T09:34:34.969Z,101029.18
2018-12-20T09:37:02.469Z,101026.05
2018-12-20T09:39:30.024Z,101026.63
2018-12-20T09:41:57.488Z,101020.72
2018-12-20T09:44:24.994Z,101018.92
2018-12-20T09:46:54.442Z,101027.18
2018-12-20T09:49:21.904Z,101021.69
2018-12-20T09:51:49.399Z,101025.61
2018-12-20T09:54:16.934Z,101021.49
2018-12-20T09:56:44.472Z,101019.70
2018-12-20T09:59:11.967Z,101018.58
2018-12-20T10:01:39.424Z,101022.75
2018-12-20T10:04:06.896Z,101017.23
2018-12-20T10:06:34.388Z,101019.88
2018-12-20T10:09:01.849Z,101022.11
2018-12-20T10:11:29.433Z,101024.19
2018-12-20T10:13:56.922Z,101023.09
2018-12-20T10:16:24.383Z,101019.86
2018-12-20T10:18:51.942Z,101026.45
2018-12-20T10:21:19.432Z,101020.16
2018-12-20T10:23:47.012Z,101013.78
2018-12-20T10:26:14.477Z,101020.05
2018-12-20T10:28:41.909Z,101018.01
2018-12-20T10:31:09.388Z,101014.25
2018-12-20T10:33:36.834Z,101016.35
2018-12-20T10:36:04.389Z,101013.81
2018-12-20T10:38:31.870Z,101016.30
2018-12-20T10:40:59.367Z,101016.82
2018-12-20T10:43:27.872Z,101008.86
2018-12-20T10:45:55.344Z,101009.56
2018-12-20T10:48:22.767Z,101005.84
2018-12-20T10:50:50.238Z,101006.87
2018-12-20T10:53:17.713Z,101008.86
2018-12-20T10:55:45.288Z,101005.00
2018-12-20T10:58:12.876Z,101003.70
2018-12-20T11:00:45.932Z,101006.30
2018-12-20T11:03:19.023Z,101009.28
2018-12-20T11:05:52.108Z,101003.03
2018-12-20T11:08:22.292Z,100992.23
2018-12-20T11:10:51.793Z,100992.05
2018-12-20T11:13:25.247Z,100989.68
2018-12-20T11:15:52.748Z,100982.38
2018-12-20T11:18:20.192Z,100984.31
2018-12-20T11:20:47.672Z,100980.55
2018-12-20T11:23:15.126Z,100980.67
2018-12-20T11:25:42.623Z,100975.89
2018-12-20T11:28:10.055Z,100977.30
2018-12-20T11:30:37.541Z,100981.30
2018-12-20T11:33:05.014Z,100982.81
2018-12-20T11:35:32.468Z,100967.02
2018-12-20T11:37:59.967Z,100965.13
2018-12-20T11:40:27.507Z,100970.80
2018-12-20T11:42:54.957Z,100968.05
2018-12-20T11:45:22.429Z,100957.08
2018-12-20T11:47:49.918Z,100971.72
2018-12-20T11:50:17.393Z,100966.20
2018-12-20T11:52:44.897Z,100973.36
2018-12-20T11:55:12.406Z,100965.25
2018-12-20T11:57:39.882Z,100954.59
2018-12-20T12:00:09.687Z,100953.34
2018-12-20T12:02:37.124Z,100955.07
2018-12-20T12:05:04.778Z,100953.75
2018-12-20T12:07:32.232Z,100950.46
2018-12-20T12:09:59.709Z,100956.44
2018-12-20T12:12:27.206Z,100956.06
2018-12-20T12:14:54.718Z,100946.49
2018-12-20T12:17:22.185Z,100949.26
2018-12-20T12:19:49.641Z,100945.98
2018-12-20T12:22:17.118Z,100949.02
2018-12-20T12:24:44.568Z,100946.41
2018-12-20T12:27:12.047Z,100948.19
2018-12-20T12:29:40.863Z,100941.61
2018-12-20T12:32:08.323Z,100937.17
2018-12-20T12:34:35.761Z,100941.83
2018-12-20T12:37:03.246Z,100944.49
2018-12-20T12:39:30.719Z,100953.34
2018-12-20T12:41:58.182Z,100945.92
2018-12-20T12:44:25.753Z,100951.59
2018-12-20T12:46:53.206Z,100943.22
2018-12-20T12:49:20.662Z,100951.98
2018-12-20T12:51:52.842Z,100957.42
2018-12-20T12:54:17.617Z,100945.53
2018-12-20T12:56:45.069Z,100956.98
2018-12-20T12:59:12.547Z,100947.04
2018-12-20T13:01:40.017Z,100953.64
2018-12-20T13:04:07.523Z,100949.02
2018-12-20T13:06:34.981Z,100945.64
2018-12-20T13:09:02.792Z,100942.23
2018-12-20T13:11:30.269Z,100949.98
2018-12-20T13:13:57.712Z,100942.58
2018-12-20T13:16:25.201Z,100939.38
2018-12-20T13:18:53.412Z,100941.96
2018-12-20T13:21:20.887Z,100940.67
2018-12-20T13:23:48.357Z,100937.65
2018-12-20T13:26:15.914Z,100939.25
2018-12-20T13:28:43.362Z,100939.25
2018-12-20T13:31:10.887Z,100950.23
2018-12-20T13:33:38.366Z,100943.47
2018-12-20T13:36:05.952Z,100941.91
2018-12-20T13:38:33.442Z,100944.19
2018-12-20T13:41:00.894Z,100949.72
2018-12-20T13:43:28.373Z,100945.02
2018-12-20T13:45:55.947Z,100942.97
2018-12-20T13:48:23.405Z,100953.11
2018-12-20T13:50:50.881Z,100952.30
2018-12-20T13:53:18.307Z,100949.71
2018-12-20T13:55:45.773Z,100958.11
2018-12-20T13:58:13.277Z,100954.97
2018-12-20T14:00:40.721Z,100957.67
2018-12-20T14:03:08.187Z,100956.59
2018-12-20T14:05:35.670Z,100965.02
2018-12-20T14:08:03.132Z,100970.27
2018-12-20T14:10:30.611Z,100965.97
2018-12-20T14:12:58.091Z,100963.34
2018-12-20T14:15:25.568Z,100962.03
2018-12-20T14:17:53.072Z,100972.43
2018-12-20T14:20:20.525Z,100969.03
2018-12-20T14:22:48.011Z,100968.23
2018-12-20T14:25:15.503Z,100968.62
2018-12-20T14:27:43.239Z,100969.72
2018-12-20T14:30:10.752Z,100968.87
2018-12-20T14:32:38.241Z,100967.31
2018-12-20T14:35:06.556Z,100965.78
2018-12-20T14:37:34.053Z,100968.44
2018-12-20T14:40:01.543Z,100974.08
2018-12-20T14:42:29.013Z,100970.52
2018-12-20T14:44:56.711Z,100967.59
2018-12-20T14:47:24.267Z,100966.72
2018-12-20T14:49:51.823Z,100974.25
2018-12-20T14:52:19.307Z,100969.94
2018-12-20T14:54:46.795Z,100971.58
2018-12-20T14:57:14.309Z,100969.96
2018-12-20T14:59:41.854Z,100975.86
2018-12-20T15:02:09.294Z,100979.01
2018-12-20T15:04:36.768Z,100992.52
2018-12-20T15:07:04.223Z,100989.27
2018-12-20T15:09:31.753Z,100979.69
2018-12-20T15:11:59.207Z,100985.84
2018-12-20T15:14:26.680Z,100985.09
2018-12-20T15:16:54.196Z,100983.20
2018-12-20T15:19:21.711Z,100984.42
2018-12-20T15:21:49.339Z,100982.87
2018-12-20T15:24:16.842Z,100988.66
2018-12-20T15:26:44.353Z,100988.39
2018-12-20T15:29:12.520Z,100989.18
2018-12-20T15:31:40.014Z,100992.09
2018-12-20T15:34:07.496Z,100998.55
2018-12-20T15:36:34.975Z,100998.93
2018-12-20T15:39:02.457Z,100998.24
2018-12-20T15:41:29.910Z,100995.07
2018-12-20T15:43:57.407Z,100995.54
2018-12-20T15:46:24.897Z,101001.38
2018-12-20T15:48:56.343Z,100996.94
2018-12-20T15:51:23.905Z,101004.20
2018-12-20T15:53:51.381Z,101002.50
2018-12-20T15:56:18.867Z,101006.19
2018-12-20T15:58:46.372Z,101004.56
2018-12-20T16:01:14.720Z,101004.64
2018-12-20T16:03:42.200Z,101004.05
2018-12-20T16:06:09.657Z,101004.98
2018-12-20T16:08:37.150Z,101012.19
2018-12-20T16:11:04.680Z,101016.56
2018-12-20T16:13:32.155Z,101024.63
2018-12-20T16:15:59.737Z,101018.41
2018-12-20T16:18:27.220Z,101027.27
2018-12-20T16:20:54.672Z,101024.86
2018-12-20T16:23:22.152Z,101025.34
2018-12-20T16:25:49.755Z,101030.53
2018-12-20T16:28:17.202Z,101037.45
2018-12-20T16:30:44.885Z,101034.08
2018-12-20T16:33:12.394Z,101033.91
2018-12-20T16:35:39.867Z,101037.16
2018-12-20T16:38:07.350Z,101034.40
2018-12-20T16:40:34.807Z,101041.32
2018-12-20T16:43:02.266Z,101055.30
2018-12-20T16:45:29.786Z,101050.56
2018-12-20T16:47:57.244Z,101050.00
2018-12-20T16:50:24.732Z,101052.83
2018-12-20T16:52:52.177Z,101052.30
2018-12-20T16:55:19.660Z,101054.27
2018-12-20T16:57:47.099Z,101057.14
2018-12-20T17:00:14.557Z,101060.09
2018-12-20T17:02:42.050Z,101055.80
2018-12-20T17:05:09.556Z,101054.08
2018-12-20T17:07:37.005Z,101056.34
2018-12-20T17:10:05.118Z,101056.11
2018-12-20T17:12:32.604Z,101059.88
2018-12-20T17:15:00.103Z,101048.58
2018-12-20T17:17:27.589Z,101054.05
2018-12-20T17:19:55.026Z,101047.20
2018-12-20T17:22:22.525Z,101052.98
2018-12-20T17:24:49.969Z,101053.78
2018-12-20T17:27:17.465Z,101050.02
2018-12-20T17:29:45.056Z,101051.48
2018-12-20T17:32:12.496Z,101049.89
2018-12-20T17:34:40.085Z,101052.42
2018-12-20T17:37:07.580Z,101045.35
2018-12-20T17:39:35.021Z,101039.06
2018-12-20T17:42:02.510Z,101047.61
2018-12-20T17:44:29.955Z,101043.37
2018-12-20T17:46:57.431Z,101041.78
2018-12-20T17:49:30.511Z,101048.98
2018-12-20T17:51:54.463Z,101045.70
2018-12-20T17:54:21.947Z,101048.11
2018-12-20T17:56:49.394Z,101046.53
2018-12-20T17:59:16.973Z,101051.26
2018-12-20T18:01:44.476Z,101054.31
2018-12-20T18:04:11.981Z,101051.67
2018-12-20T18:06:39.493Z,101055.19
2018-12-20T18:09:08.569Z,101045.97
2018-12-20T18:11:36.126Z,101049.52
2018-12-20T18:14:03.641Z,101046.58
2018-12-20T18:16:31.101Z,101041.54
2018-12-20T18:18:58.583Z,101051.01
2018-12-20T18:21:26.179Z,101047.31
2018-12-20T18:23:53.676Z,101035.53
2018-12-20T18:26:21.161Z,101045.48
2018-12-20T18:28:48.639Z,101038.28
2018-12-20T18:31:16.134Z,101038.09
2018-12-20T18:33:43.597Z,101040.98
2018-12-20T18:36:11.130Z,101039.45
2018-12-20T18:38:38.655Z,101042.83
2018-12-20T18:41:06.130Z,101038.27
2018-12-20T18:43:33.610Z,101037.95
2018-12-20T18:46:01.121Z,101046.81
2018-12-20T18:48:28.571Z,101049.16
2018-12-20T18:50:56.030Z,101045.40
2018-12-20T18:53:23.523Z,101050.39
2018-12-20T18:55:50.970Z,101048.36
2018-12-20T18:58:18.475Z,101043.97
2018-12-20T19:00:45.961Z,101056.77
2018-12-20T19:03:13.468Z,101054.58
2018-12-20T19:05:40.969Z,101059.92
2018-12-20T19:08:08.421Z,101060.23
2018-12-20T19:10:35.871Z,101052.23
2018-12-20T19:13:03.368Z,101066.42
2018-12-20T19:15:30.848Z,101070.79
2018-12-20T19:17:58.353Z,101067.39
2018-12-20T19:20:25.880Z,101061.48
2018-12-20T19:22:53.372Z,101063.02
2018-12-20T19:25:20.871Z,101065.62
2018-12-20T19:27:48.347Z,101070.22
2018-12-20T19:30:15.855Z,101061.33
2018-12-20T19:32:43.289Z,101079.48
2018-12-20T19:35:10.826Z,101073.50
2018-12-20T19:37:38.273Z,101058.64
2018-12-20T19:40:08.368Z,101067.24
2018-12-20T19:42:35.820Z,101064.33
2018-12-20T19:45:03.706Z,101075.28
2018-12-20T19:47:31.180Z,101067.03
2018-12-20T19:50:04.872Z,101071.13
2018-12-20T19:52:28.169Z,101063.82
2018-12-20T19:54:55.605Z,101070.03
2018-12-20T19:57:23.589Z,101067.78
2018-12-20T19:59:51.056Z,101064.17
2018-12-20T20:02:18.512Z,101073.00
2018-12-20T20:04:46.012Z,101065.09
2018-12-20T20:07:13.466Z,101059.19
2018-12-20T20:09:40.975Z,101046.76
2018-12-20T20:12:08.455Z,101038.03
2018-12-20T20:14:35.941Z,101046.33
2018-12-20T20:17:03.551Z,101037.78
2018-12-20T20:19:31.019Z,101039.12
2018-12-20T20:21:58.479Z,101034.53
2018-12-20T20:24:25.979Z,101040.83
2018-12-20T20:26:53.424Z,101039.69
2018-12-20T20:29:20.961Z,101031.25
2018-12-20T20:31:48.429Z,101040.72
2018-12-20T20:34:15.912Z,101031.69
2018-12-20T20:36:43.380Z,101040.98
2018-12-20T20:39:10.862Z,101039.81
2018-12-20T20:41:38.376Z,101039.67
2018-12-20T20:44:05.876Z,101037.34
2018-12-20T20:46:33.370Z,101045.33
2018-12-20T20:49:00.820Z,101041.34
2018-12-20T20:51:28.300Z,101048.66
2018-12-20T20:53:55.776Z,101049.91
2018-12-20T20:56:23.276Z,101047.92
2018-12-20T20:58:50.830Z,101042.96
2018-12-20T21:01:18.322Z,101038.95
2018-12-20T21:03:45.796Z,101037.05
2018-12-20T21:06:13.302Z,101040.73
2018-12-20T21:08:40.746Z,101049.03
2018-12-20T21:11:08.191Z,101050.09
2018-12-20T21:13:35.708Z,101047.50
2018-12-20T21:16:03.160Z,101051.92
2018-12-20T21:21:04.631Z,101056.35
2018-12-20T21:23:32.109Z,101063.48
2018-12-20T21:25:59.641Z,101060.72
2018-12-20T21:28:27.887Z,101049.22
2018-12-20T21:30:55.331Z,101047.20
2018-12-20T21:33:22.828Z,101045.40
2018-12-20T21:35:50.266Z,101040.05
2018-12-20T21:38:17.754Z,101046.56
2018-12-20T21:40:45.252Z,101047.44
2018-12-20T21:43:12.695Z,101052.11
2018-12-20T21:45:40.184Z,101060.22
2018-12-20T21:48:07.630Z,101056.95
2018-12-20T21:50:38.899Z,101059.05
2018-12-20T21:53:04.607Z,101043.80
2018-12-20T21:55:32.125Z,101056.48
2018-12-20T21:57:59.574Z,101047.13
2018-12-20T22:00:27.051Z,101050.34
2018-12-20T22:02:54.505Z,101049.52
2018-12-20T22:05:21.990Z,101045.03
2018-12-20T22:07:49.478Z,101046.30
2018-12-20T22:10:16.936Z,101048.70
2018-12-20T22:12:44.496Z,101050.72
2018-12-20T22:15:11.939Z,101049.88
2018-12-20T22:17:39.420Z,101055.47
2018-12-20T22:20:07.034Z,101047.73
2018-12-20T22:22:34.639Z,101047.50
2018-12-20T22:25:02.104Z,101041.47
2018-12-20T22:27:29.711Z,101041.34
2018-12-20T22:29:57.204Z,101040.17
2018-12-20T22:32:24.694Z,101043.85
2018-12-20T22:34:52.165Z,101039.24
2018-12-20T22:37:19.677Z,101042.16
2018-12-20T22:39:47.290Z,101039.50
2018-12-20T22:42:14.782Z,101039.94
2018-12-20T22:44:42.260Z,101040.53
2018-12-20T22:47:10.257Z,101034.27
2018-12-20T22:49:37.744Z,101037.58
2018-12-20T22:52:05.219Z,101030.75
2018-12-20T22:54:32.700Z,101025.36
2018-12-20T22:57:00.166Z,101023.09
2018-12-20T22:59:27.654Z,101024.14
2018-12-20T23:01:55.239Z,101023.20
2018-12-20T23:07:00.548Z,101013.31
2018-12-20T23:09:27.970Z,101005.06
2018-12-20T23:11:55.444Z,101012.59
2018-12-20T23:14:23.039Z,101011.20
2018-12-20T23:16:53.871Z,101007.27
2018-12-20T23:19:19.979Z,101009.63
2018-12-20T23:21:47.450Z,100999.67
2018-12-20T23:24:14.880Z,101001.08
2018-12-20T23:26:42.474Z,100987.38
2018-12-20T23:29:11.090Z,100987.55
2018-12-20T23:31:38.555Z,100982.37
2018-12-20T23:34:06.084Z,100982.07
2018-12-20T23:36:33.575Z,100979.79
2018-12-20T23:39:01.055Z,100979.71
2018-12-20T23:41:28.519Z,100978.17
2018-12-20T23:43:55.966Z,100986.11
2018-12-20T23:46:23.473Z,100986.19
2018-12-20T23:48:50.938Z,100978.26
2018-12-20T23:51:18.412Z,100973.78
2018-12-20T23:53:45.889Z,100974.19
2018-12-20T23:56:13.336Z,100982.86
2018-12-20T23:58:40.790Z,100987.67
